Time;durP1;ratioP1;P1;durP2;ratioP2;P2;SDS_P1;SDS_P2;PMS_P1;PMS_P2;Temp;Humidity;BMP_temperature;BMP_pressure;BME280_temperature;BME280_humidity;BME280_pressure;Samples;Min_cycle;Max_cycle;Signal;HPM_P1;HPM_P2
2023/08/13 00:01:26;;;;;;;6.13;4.25;;;;;;;17.91;100.00;101545.16;6131138;28;20242;-68
2023/08/13 00:04:47;;;;;;;5.40;4.22;;;;;;;17.85;100.00;101536.78;6133555;28;20230;-69
2023/08/13 00:08:09;;;;;;;3.65;3.25;;;;;;;17.92;100.00;101535.94;6133320;28;20250;-66
2023/08/13 00:11:31;;;;;;;8.35;4.03;;;;;;;17.91;100.00;101533.38;6133029;28;20236;-68
2023/08/13 00:14:52;;;;;;;5.40;3.65;;;;;;;17.89;100.00;101549.06;6139435;28;20231;-69
2023/08/13 00:18:13;;;;;;;4.38;2.80;;;;;;;17.84;100.00;101537.78;6137363;28;20227;-67
2023/08/13 00:21:34;;;;;;;6.15;3.30;;;;;;;17.91;100.00;101544.28;6128789;28;20236;-68
2023/08/13 00:24:56;;;;;;;6.07;3.50;;;;;;;17.96;100.00;101547.41;6138406;28;20243;-68
2023/08/13 00:28:17;;;;;;;8.73;3.88;;;;;;;18.03;100.00;101542.94;6105966;28;20318;-67
2023/08/13 00:31:38;;;;;;;7.53;3.15;;;;;;;18.12;100.00;101551.00;6135676;28;20333;-68
2023/08/13 00:34:59;;;;;;;4.35;3.38;;;;;;;17.81;100.00;101549.06;6130200;28;20239;-68
2023/08/13 00:38:20;;;;;;;5.78;4.32;;;;;;;17.61;100.00;101540.28;6108660;28;20243;-69
2023/08/13 00:41:42;;;;;;;4.60;2.75;;;;;;;17.60;100.00;101546.78;6125045;28;20232;-68
2023/08/13 00:45:04;;;;;;;6.80;2.97;;;;;;;17.70;100.00;101546.63;6134068;28;20257;-68
2023/08/13 00:48:25;;;;;;;5.53;3.95;;;;;;;17.81;100.00;101546.31;6127684;28;21145;-68
2023/08/13 00:51:47;;;;;;;3.72;3.40;;;;;;;17.67;100.00;101547.81;6130484;28;20491;-68
2023/08/13 00:55:08;;;;;;;5.63;3.33;;;;;;;17.70;100.00;101547.47;6127468;28;20231;-69
2023/08/13 00:58:30;;;;;;;3.72;3.25;;;;;;;17.60;100.00;101554.09;6132423;28;20318;-68
2023/08/13 01:01:52;;;;;;;5.93;3.38;;;;;;;17.64;100.00;101547.28;6130331;28;20253;-67
2023/08/13 01:05:13;;;;;;;5.85;3.67;;;;;;;17.85;100.00;101553.16;6126105;28;20278;-67
2023/08/13 01:08:42;;;;;;;5.00;3.28;;;;;;;17.88;100.00;101559.13;6144677;28;20322;-68
2023/08/13 01:12:09;;;;;;;7.90;3.53;;;;;;;17.93;100.00;101556.75;6125845;28;20238;-67
2023/08/13 01:15:35;;;;;;;4.65;3.58;;;;;;;17.92;100.00;101562.38;6128272;28;20230;-67
2023/08/13 01:18:56;;;;;;;5.30;3.38;;;;;;;17.71;100.00;101561.97;6130071;28;20239;-68
2023/08/13 01:22:23;;;;;;;3.60;3.13;;;;;;;17.32;100.00;101553.44;6116505;28;20570;-68
2023/08/13 01:25:50;;;;;;;4.43;2.92;;;;;;;17.51;100.00;101562.25;6135177;28;20859;-68
2023/08/13 01:29:19;;;;;;;9.90;3.67;;;;;;;17.38;100.00;101569.13;6128914;28;20255;-68
2023/08/13 01:32:47;;;;;;;5.78;3.85;;;;;;;17.28;100.00;101569.25;6116780;28;20230;-68
2023/08/13 01:36:14;;;;;;;5.32;3.10;;;;;;;17.36;100.00;101563.84;6134695;28;20242;-68
2023/08/13 01:39:37;;;;;;;3.90;3.15;;;;;;;17.38;100.00;101569.13;6120617;28;20264;-68
2023/08/13 01:42:58;;;;;;;3.97;3.28;;;;;;;17.43;100.00;101570.38;6108143;28;20265;-67
2023/08/13 01:46:19;;;;;;;6.97;3.22;;;;;;;17.39;100.00;101570.84;6125240;28;20239;-68
2023/08/13 01:49:40;;;;;;;4.90;3.63;;;;;;;17.42;100.00;101565.91;6129757;28;20240;-68
2023/08/13 01:53:01;;;;;;;5.47;3.33;;;;;;;17.41;100.00;101569.69;6121714;28;20358;-68
2023/08/13 01:56:23;;;;;;;4.40;2.67;;;;;;;17.40;100.00;101565.22;6138310;28;20259;-69
2023/08/13 01:59:44;;;;;;;7.90;3.38;;;;;;;17.23;100.00;101570.78;6127579;28;20330;-69
2023/08/13 02:03:07;;;;;;;6.20;3.15;;;;;;;17.40;100.00;101570.69;6120066;28;20419;-68
2023/08/13 02:06:30;;;;;;;7.78;3.25;;;;;;;17.43;100.00;101572.22;6118032;28;20330;-68
2023/08/13 02:09:53;;;;;;;2.60;2.33;;;;;;;17.41;100.00;101571.53;6135826;28;20732;-67
2023/08/13 02:13:15;;;;;;;3.83;2.35;;;;;;;17.42;100.00;101574.09;6118829;28;20231;-69
2023/08/13 02:16:36;;;;;;;3.70;2.45;;;;;;;17.48;100.00;101576.16;6122124;28;20230;-68
2023/08/13 02:19:58;;;;;;;4.28;3.25;;;;;;;17.50;100.00;101573.31;6129985;28;20231;-68
2023/08/13 02:23:19;;;;;;;3.42;2.65;;;;;;;17.42;100.00;101573.22;6130491;28;20235;-68
2023/08/13 02:26:39;;;;;;;2.95;2.65;;;;;;;17.46;100.00;101571.88;6124152;28;20605;-68
2023/08/13 02:30:06;;;;;;;4.50;3.70;;;;;;;17.54;100.00;101570.09;6133935;28;20255;-68
2023/08/13 02:33:27;;;;;;;8.43;3.30;;;;;;;17.53;100.00;101579.28;6122673;28;20236;-68
2023/08/13 02:36:48;;;;;;;3.28;2.25;;;;;;;17.51;99.75;101577.75;6127369;28;20605;-68
2023/08/13 02:40:09;;;;;;;3.15;2.55;;;;;;;17.63;99.26;101572.88;6135980;28;20821;-68
2023/08/13 02:43:34;;;;;;;4.55;2.30;;;;;;;17.58;98.76;101565.19;6113271;28;20633;-69
2023/08/13 02:46:56;;;;;;;7.25;2.78;;;;;;;17.64;98.34;101583.59;6131546;28;20227;-69
2023/08/13 02:50:17;;;;;;;3.22;2.50;;;;;;;17.61;97.94;101583.91;6133319;28;20255;-68
2023/08/13 02:53:37;;;;;;;6.85;3.08;;;;;;;17.56;97.89;101576.22;6120939;28;20323;-68
2023/08/13 02:56:59;;;;;;;3.30;2.47;;;;;;;17.41;98.17;101580.59;6129545;28;20595;-68
2023/08/13 03:00:21;;;;;;;4.90;2.65;;;;;;;17.53;98.92;101573.84;6130087;28;20240;-68
2023/08/13 03:03:43;;;;;;;4.80;2.88;;;;;;;17.40;99.86;101578.84;6111550;28;20239;-68
2023/08/13 03:07:04;;;;;;;3.15;2.15;;;;;;;17.24;100.00;101575.19;6132953;28;20239;-68
2023/08/13 03:10:25;;;;;;;4.82;2.50;;;;;;;17.14;100.00;101590.81;6123721;28;20240;-68
2023/08/13 03:13:46;;;;;;;3.40;2.53;;;;;;;17.09;100.00;101585.84;6123564;28;20238;-68
2023/08/13 03:17:07;;;;;;;4.03;2.58;;;;;;;17.15;100.00;101587.91;6127868;28;20543;-67
2023/08/13 03:20:29;;;;;;;3.30;2.63;;;;;;;17.01;100.00;101580.34;6122983;28;20239;-68
2023/08/13 03:23:50;;;;;;;3.77;2.63;;;;;;;16.93;100.00;101585.75;6134416;28;20242;-68
2023/08/13 03:27:12;;;;;;;4.97;2.95;;;;;;;17.21;100.00;101583.72;6131777;28;20353;-69
2023/08/13 03:30:34;;;;;;;7.47;2.75;;;;;;;17.05;100.00;101584.44;6119942;28;20239;-68
2023/08/13 03:33:54;;;;;;;3.88;2.88;;;;;;;17.00;100.00;101592.22;6136744;28;20327;-67
2023/08/13 03:37:18;;;;;;;3.17;2.45;;;;;;;16.91;100.00;101592.34;6123619;28;20319;-69
2023/08/13 03:40:39;;;;;;;4.38;2.33;;;;;;;16.76;100.00;101592.06;6121590;28;20330;-68
2023/08/13 03:44:00;;;;;;;4.50;2.50;;;;;;;16.75;100.00;101593.94;6125282;28;20231;-68
2023/08/13 03:47:20;;;;;;;4.38;2.97;;;;;;;17.00;100.00;101594.13;6136001;28;20235;-69
2023/08/13 03:50:42;;;;;;;6.50;2.90;;;;;;;17.20;100.00;101595.59;6125707;28;20544;-68
2023/08/13 03:54:06;;;;;;;2.85;2.20;;;;;;;17.17;100.00;101594.06;6142441;28;20227;-68
2023/08/13 03:57:27;;;;;;;4.55;3.30;;;;;;;17.14;100.00;101590.81;6112741;28;20228;-68
2023/08/13 04:00:49;;;;;;;5.18;3.03;;;;;;;17.29;100.00;101587.31;6120574;28;20238;-68
2023/08/13 04:04:10;;;;;;;3.40;2.03;;;;;;;17.03;100.00;101591.94;6119853;28;20259;-69
2023/08/13 04:07:31;;;;;;;2.75;2.33;;;;;;;16.85;100.00;101595.72;6122093;28;20236;-69
2023/08/13 04:10:53;;;;;;;4.05;2.95;;;;;;;16.64;100.00;101587.91;6123234;28;20555;-68
2023/08/13 04:14:14;;;;;;;7.60;3.20;;;;;;;16.59;100.00;101596.53;6122020;28;20505;-68
2023/08/13 04:17:36;;;;;;;3.92;2.63;;;;;;;16.60;100.00;101600.13;6130173;28;20227;-68
2023/08/13 04:20:57;;;;;;;3.33;2.35;;;;;;;16.60;100.00;101602.84;6125497;28;20226;-69
2023/08/13 04:24:18;;;;;;;5.07;2.13;;;;;;;16.47;100.00;101605.94;6127206;28;20239;-68
2023/08/13 04:27:40;;;;;;;3.50;2.22;;;;;;;16.59;100.00;101592.94;6125482;28;20353;-68
2023/08/13 04:31:02;;;;;;;6.97;3.35;;;;;;;16.72;100.00;101601.56;6120698;28;20231;-69
2023/08/13 04:34:28;;;;;;;4.72;3.20;;;;;;;16.79;100.00;101598.03;6105802;28;20330;-68
2023/08/13 04:37:50;;;;;;;5.25;3.10;;;;;;;17.02;100.00;101603.00;6131268;28;20228;-68
2023/08/13 04:41:12;;;;;;;3.88;3.15;;;;;;;17.01;100.00;101604.84;6124681;28;20274;-68
2023/08/13 04:44:40;;;;;;;2.85;2.63;;;;;;;16.98;100.00;101598.88;6131150;28;20244;-69
2023/08/13 04:48:05;;;;;;;2.80;2.23;;;;;;;17.08;100.00;101600.50;6126098;28;20235;-68
2023/08/13 04:51:29;;;;;;;16.25;3.00;;;;;;;17.13;100.00;101597.25;6127253;28;20239;-68
2023/08/13 04:54:51;;;;;;;2.30;2.08;;;;;;;16.95;100.00;101597.31;6132185;28;20239;-68
2023/08/13 04:58:13;;;;;;;5.70;2.42;;;;;;;17.05;100.00;101586.31;6118368;28;20235;-69
2023/08/13 05:01:35;;;;;;;6.20;3.25;;;;;;;17.07;100.00;101587.88;6106932;28;20227;-69
2023/08/13 05:04:57;;;;;;;3.70;2.23;;;;;;;16.99;100.00;101589.69;6146603;28;20239;-69
2023/08/13 05:08:18;;;;;;;14.37;3.53;;;;;;;16.96;100.00;101598.19;6128122;28;20240;-68
2023/08/13 05:11:39;;;;;;;4.47;2.33;;;;;;;17.15;100.00;101592.50;6125445;28;20604;-68
2023/08/13 05:15:00;;;;;;;3.22;2.53;;;;;;;17.26;100.00;101595.81;6141565;28;20226;-70
2023/08/13 05:18:23;;;;;;;2.60;2.03;;;;;;;17.14;100.00;101593.53;6112882;28;20236;-69
2023/08/13 05:21:44;;;;;;;7.10;2.90;;;;;;;17.33;100.00;101591.44;6117738;28;20559;-68
2023/08/13 05:25:06;;;;;;;3.30;2.58;;;;;;;17.26;100.00;101604.00;6131396;28;20232;-68
2023/08/13 05:28:26;;;;;;;3.75;2.58;;;;;;;17.38;100.00;101602.69;6128590;28;20231;-67
2023/08/13 05:31:47;;;;;;;2.60;2.40;;;;;;;17.54;100.00;101602.81;6124064;28;20338;-68
2023/08/13 05:35:10;;;;;;;3.08;2.75;;;;;;;17.50;100.00;101595.13;6126237;28;20231;-68
2023/08/13 05:38:31;;;;;;;4.13;2.35;;;;;;;17.75;100.00;101594.22;6121051;28;20606;-68
2023/08/13 05:41:53;;;;;;;3.25;2.08;;;;;;;17.63;100.00;101590.06;6115669;28;20231;-69
2023/08/13 05:45:15;;;;;;;3.15;2.72;;;;;;;17.68;100.00;101595.03;6120003;29;20239;-69
2023/08/13 05:48:36;;;;;;;5.20;2.28;;;;;;;17.66;100.00;101591.59;6132756;28;20295;-68
2023/08/13 05:51:58;;;;;;;2.85;2.63;;;;;;;17.87;100.00;101597.50;6117317;28;20522;-68
2023/08/13 05:55:19;;;;;;;7.70;2.70;;;;;;;18.05;100.00;101584.56;6123511;28;20592;-68
2023/08/13 05:58:40;;;;;;;2.47;2.03;;;;;;;18.01;100.00;101594.97;6133416;28;20258;-69
2023/08/13 06:02:01;;;;;;;2.67;2.47;;;;;;;17.98;100.00;101584.38;6120416;28;20228;-68
2023/08/13 06:05:22;;;;;;;3.65;2.58;;;;;;;18.20;100.00;101591.09;6109683;28;20235;-68
2023/08/13 06:08:44;;;;;;;3.17;2.88;;;;;;;18.41;100.00;101596.94;6122847;28;20231;-68
2023/08/13 06:12:06;;;;;;;2.78;2.55;;;;;;;17.99;100.00;101596.16;6128461;28;20691;-69
2023/08/13 06:15:27;;;;;;;8.02;3.17;;;;;;;18.10;100.00;101587.66;6113149;28;20240;-69
2023/08/13 06:18:48;;;;;;;3.38;2.20;;;;;;;18.23;100.00;101596.22;6131501;28;20232;-68
2023/08/13 06:22:09;;;;;;;5.70;2.85;;;;;;;18.29;99.87;101601.84;6128628;28;20238;-68
2023/08/13 06:25:31;;;;;;;4.28;1.77;;;;;;;18.72;99.23;101614.38;6119467;28;20246;-68
2023/08/13 06:28:52;;;;;;;2.33;2.10;;;;;;;18.66;98.15;101608.75;6133671;28;20235;-68
2023/08/13 06:32:13;;;;;;;3.42;2.28;;;;;;;18.48;98.28;101614.38;6136570;28;20238;-68
2023/08/13 06:35:34;;;;;;;3.35;2.50;;;;;;;18.54;97.99;101612.84;6115296;28;20241;-68
2023/08/13 06:38:54;;;;;;;4.93;3.40;;;;;;;18.55;98.05;101612.66;6133673;28;20243;-69
2023/08/13 06:42:18;;;;;;;3.30;2.40;;;;;;;18.60;98.13;101614.88;6129911;28;20240;-67
2023/08/13 06:45:41;;;;;;;4.82;2.70;;;;;;;18.84;97.13;101620.34;6118710;28;20662;-67
2023/08/13 06:49:02;;;;;;;6.55;2.60;;;;;;;18.80;96.75;101608.06;6126941;28;20268;-68
2023/08/13 06:52:24;;;;;;;4.15;2.75;;;;;;;18.88;96.67;101617.09;6145336;28;20238;-67
2023/08/13 06:55:45;;;;;;;2.85;2.38;;;;;;;18.97;96.24;101605.16;6117639;28;20354;-69
2023/08/13 06:59:07;;;;;;;4.53;2.60;;;;;;;19.37;95.72;101604.25;6144605;28;20262;-68
2023/08/13 07:02:28;;;;;;;4.95;3.00;;;;;;;19.51;94.82;101608.13;6141974;28;20227;-68
2023/08/13 07:05:50;;;;;;;6.70;2.97;;;;;;;19.54;94.61;101605.91;6119137;28;20300;-68
2023/08/13 07:09:11;;;;;;;3.00;2.10;;;;;;;19.41;94.20;101604.75;6123634;28;20322;-68
2023/08/13 07:12:32;;;;;;;2.88;2.58;;;;;;;19.36;94.22;101599.78;6134745;28;20235;-68
2023/08/13 07:15:54;;;;;;;2.58;2.20;;;;;;;19.79;93.79;101604.78;6119302;28;20516;-68
2023/08/13 07:19:15;;;;;;;4.18;2.30;;;;;;;19.81;92.21;101605.44;6136291;28;20238;-69
2023/08/13 07:22:37;;;;;;;2.78;2.10;;;;;;;19.90;91.12;101609.00;6119099;28;20240;-68
2023/08/13 07:25:57;;;;;;;4.43;2.35;;;;;;;20.17;89.86;101607.66;6126507;28;20239;-68
2023/08/13 07:29:18;;;;;;;4.05;2.55;;;;;;;20.48;88.54;101609.34;6129312;28;20236;-68
2023/08/13 07:32:41;;;;;;;5.80;2.97;;;;;;;20.63;86.84;101610.25;6123032;28;20231;-68
2023/08/13 07:36:03;;;;;;;5.25;2.58;;;;;;;20.64;85.43;101617.44;6121806;28;20610;-68
2023/08/13 07:39:24;;;;;;;4.40;2.35;;;;;;;20.48;85.17;101627.66;6130968;28;20240;-68
2023/08/13 07:42:45;;;;;;;5.03;2.38;;;;;;;20.64;84.76;101624.81;6139008;28;20245;-68
2023/08/13 07:46:06;;;;;;;3.35;2.20;;;;;;;20.73;84.12;101623.72;6127498;28;20231;-68
2023/08/13 07:49:28;;;;;;;6.53;2.47;;;;;;;20.85;82.83;101629.59;6131895;28;20292;-68
2023/08/13 07:52:50;;;;;;;4.95;2.30;;;;;;;20.57;81.38;101641.13;6140792;28;20231;-68
2023/08/13 07:56:10;;;;;;;4.88;2.17;;;;;;;20.54;80.89;101629.69;6120095;28;20334;-67
2023/08/13 07:59:31;;;;;;;4.25;2.75;;;;;;;20.87;79.88;101635.75;6145676;28;20239;-68
2023/08/13 08:02:53;;;;;;;6.05;3.38;;;;;;;20.94;79.74;101625.75;6120117;28;20537;-67
2023/08/13 08:06:15;;;;;;;1.80;1.70;;;;;;;21.04;78.59;101626.38;6127412;28;20318;-67
2023/08/13 08:09:36;;;;;;;2.28;1.60;;;;;;;20.58;78.98;101631.88;6131086;28;20251;-68
2023/08/13 08:12:57;;;;;;;9.00;1.80;;;;;;;20.71;78.58;101637.56;6126055;28;20239;-68
2023/08/13 08:16:18;;;;;;;4.18;1.70;;;;;;;20.85;78.62;101627.72;6125687;28;20239;-68
2023/08/13 08:19:39;;;;;;;3.28;1.77;;;;;;;20.86;78.60;101623.91;6132164;28;20235;-67
2023/08/13 08:23:01;;;;;;;2.95;2.08;;;;;;;21.32;77.44;101627.44;6126349;28;20235;-68
2023/08/13 08:26:22;;;;;;;2.40;1.65;;;;;;;21.43;77.74;101627.84;6134607;28;20582;-68
2023/08/13 08:29:43;;;;;;;4.30;1.80;;;;;;;21.85;76.50;101621.72;6136064;28;20239;-68
2023/08/13 08:33:04;;;;;;;4.68;1.67;;;;;;;21.49;76.37;101629.84;6116159;28;20240;-67
2023/08/13 08:36:25;;;;;;;2.15;1.23;;;;;;;21.84;75.02;101641.13;6118915;28;20234;-67
2023/08/13 08:39:47;;;;;;;4.75;2.00;;;;;;;21.61;74.69;101637.63;6142484;28;20243;-68
2023/08/13 08:43:10;;;;;;;3.63;1.60;;;;;;;21.54;74.91;101628.41;6139445;28;20230;-68
2023/08/13 08:46:32;;;;;;;4.45;1.50;;;;;;;21.45;75.53;101630.41;6117007;28;20231;-68
2023/08/13 08:49:55;;;;;;;1.90;1.27;;;;;;;21.26;76.54;101630.94;6130644;28;20231;-68
2023/08/13 08:53:17;;;;;;;2.80;1.30;;;;;;;21.47;74.99;101645.63;6116778;28;20544;-68
2023/08/13 08:56:40;;;;;;;2.17;1.67;;;;;;;21.48;74.13;101641.88;6130726;28;20262;-68
2023/08/13 09:00:01;;;;;;;1.95;1.33;;;;;;;21.67;73.61;101634.09;6137832;28;20235;-68
2023/08/13 09:03:22;;;;;;;2.97;1.10;;;;;;;21.87;73.35;101635.25;6134969;28;20236;-69
2023/08/13 09:06:53;;;;;;;1.42;1.33;;;;;;;21.89;72.59;101616.69;6119048;28;20638;-68
2023/08/13 09:10:14;;;;;;;2.75;1.25;;;;;;;21.40;72.52;101619.97;6126905;28;20228;-68
2023/08/13 09:13:37;;;;;;;2.33;1.38;;;;;;;21.64;71.47;101626.25;6129719;28;20232;-68
2023/08/13 09:16:58;;;;;;;2.40;1.30;;;;;;;21.69;71.89;101629.28;6120213;28;20238;-67
2023/08/13 09:20:23;;;;;;;3.55;1.30;;;;;;;21.88;71.46;101620.50;6119716;28;20588;-69
2023/08/13 09:23:44;;;;;;;1.77;1.05;;;;;;;21.84;71.02;101625.50;6132963;28;20341;-68
2023/08/13 09:27:07;;;;;;;1.63;1.27;;;;;;;21.34;70.31;101626.22;6119366;28;20631;-67
2023/08/13 09:30:32;;;;;;;1.92;1.17;;;;;;;21.51;70.53;101623.31;6115245;28;20241;-68
2023/08/13 09:33:53;;;;;;;2.28;1.63;;;;;;;22.14;69.93;101618.06;6131090;28;20550;-67
2023/08/13 09:37:14;;;;;;;1.85;1.20;;;;;;;22.07;68.54;101603.41;6111478;28;20508;-68
2023/08/13 09:40:35;;;;;;;1.90;1.40;;;;;;;22.35;68.38;101607.09;6108603;28;20227;-68
2023/08/13 09:44:02;;;;;;;2.08;1.15;;;;;;;22.50;68.08;101607.03;6124345;28;20227;-68
2023/08/13 09:47:27;;;;;;;3.28;1.10;;;;;;;22.63;67.28;101610.81;6124489;28;20422;-68
2023/08/13 09:50:51;;;;;;;1.20;1.10;;;;;;;22.21;68.15;101611.63;6121161;28;20238;-67
2023/08/13 09:54:16;;;;;;;4.22;1.20;;;;;;;22.79;67.08;101607.78;6132503;28;20246;-68
2023/08/13 09:57:39;;;;;;;2.60;1.30;;;;;;;22.66;65.87;101610.41;6117431;28;20235;-69
2023/08/13 10:01:01;;;;;;;5.47;1.80;;;;;;;22.96;65.95;101609.22;6124350;28;20239;-67
2023/08/13 10:04:23;;;;;;;1.90;0.98;;;;;;;23.46;65.61;101601.78;6140840;28;20292;-68
2023/08/13 10:07:46;;;;;;;1.33;1.23;;;;;;;23.48;64.85;101611.53;6116800;28;20333;-69
2023/08/13 10:11:07;;;;;;;4.05;2.08;;;;;;;23.35;65.68;101603.19;6111121;28;20551;-68
2023/08/13 10:14:28;;;;;;;1.35;1.20;;;;;;;23.91;64.73;101600.31;6126478;28;20232;-69
2023/08/13 10:17:49;;;;;;;1.40;1.08;;;;;;;24.02;63.51;101595.06;6136572;28;20238;-68
2023/08/13 10:21:14;;;;;;;1.50;1.40;;;;;;;24.13;62.75;101591.75;6126975;28;20239;-68
2023/08/13 10:24:36;;;;;;;2.28;0.80;;;;;;;24.01;64.05;101603.53;6131494;28;20315;-69
2023/08/13 10:27:57;;;;;;;2.17;1.13;;;;;;;22.73;66.38;101605.84;6125926;28;20254;-67
2023/08/13 10:31:25;;;;;;;3.47;1.55;;;;;;;23.60;66.25;101601.66;6124313;28;20286;-68
2023/08/13 10:34:48;;;;;;;1.92;1.40;;;;;;;23.60;65.57;101601.66;6136748;28;20230;-68
2023/08/13 10:38:10;;;;;;;3.50;1.20;;;;;;;23.38;66.23;101610.19;6124432;28;20238;-68
2023/08/13 10:41:34;;;;;;;2.30;1.35;;;;;;;23.03;66.59;101601.84;6135769;28;20317;-67
2023/08/13 10:45:04;;;;;;;6.47;2.40;;;;;;;22.81;67.74;101611.19;6141158;28;20231;-68
2023/08/13 10:48:27;;;;;;;5.05;1.17;;;;;;;22.79;67.94;101615.19;6124318;28;20285;-68
2023/08/13 10:51:49;;;;;;;2.83;1.27;;;;;;;23.08;67.17;101609.50;6122752;28;20333;-67
2023/08/13 10:55:11;;;;;;;2.63;1.23;;;;;;;23.57;66.32;101603.97;6125801;28;20540;-68
2023/08/13 10:58:39;;;;;;;5.35;1.45;;;;;;;23.41;66.21;101609.78;6129509;28;20228;-68
2023/08/13 11:02:21;;;;;;;3.92;1.85;;;;;;;23.35;67.09;101613.34;6132364;28;20337;-68
2023/08/13 11:05:43;;;;;;;1.48;1.38;;;;;;;23.57;66.17;101607.53;6122571;28;20251;-68
2023/08/13 11:09:08;;;;;;;1.60;1.00;;;;;;;23.26;65.67;101612.59;6134564;28;20231;-68
2023/08/13 11:12:31;;;;;;;2.75;1.02;;;;;;;23.21;66.01;101612.38;6140537;28;20239;-67
2023/08/13 11:15:53;;;;;;;3.00;1.67;;;;;;;23.69;64.96;101616.09;6123862;28;20235;-69
2023/08/13 11:19:14;;;;;;;1.23;1.13;;;;;;;23.75;64.29;101607.03;6140236;28;20235;-68
2023/08/13 11:22:35;;;;;;;1.67;1.00;;;;;;;24.45;62.55;101602.00;6138111;28;20610;-68
2023/08/13 11:25:56;;;;;;;5.95;1.48;;;;;;;24.58;62.02;101603.94;6121513;28;20558;-68
2023/08/13 11:29:21;;;;;;;3.25;1.90;;;;;;;25.46;60.06;101588.88;6127806;28;20235;-67
2023/08/13 11:32:41;;;;;;;1.45;1.35;;;;;;;25.10;59.69;101600.38;6121231;28;20242;-67
2023/08/13 11:36:02;;;;;;;2.63;1.52;;;;;;;25.20;60.21;101587.84;6121939;28;20326;-68
2023/08/13 11:39:24;;;;;;;5.57;1.20;;;;;;;25.33;59.30;101609.91;6125692;28;20236;-69
2023/08/13 11:42:53;;;;;;;1.38;1.27;;;;;;;25.09;60.31;101590.41;6129387;28;20235;-68
2023/08/13 11:46:15;;;;;;;5.70;1.52;;;;;;;25.36;58.89;101597.59;6121338;28;20235;-68
2023/08/13 11:49:43;;;;;;;1.20;0.73;;;;;;;25.66;58.77;101595.22;6132949;28;20231;-68
2023/08/13 11:53:05;;;;;;;2.05;0.85;;;;;;;25.35;57.96;101596.72;6128673;28;20334;-68
2023/08/13 11:56:26;;;;;;;1.48;1.05;;;;;;;24.36;61.46;101594.13;6123895;28;20235;-68
2023/08/13 11:59:50;;;;;;;1.25;1.15;;;;;;;24.70;60.42;101591.22;6120346;28;20239;-68
2023/08/13 12:03:13;;;;;;;1.33;0.88;;;;;;;24.93;59.83;101588.91;6119454;28;20335;-68
2023/08/13 12:06:35;;;;;;;2.10;1.10;;;;;;;25.05;58.89;101592.75;6123117;28;20251;-68
2023/08/13 12:09:56;;;;;;;2.50;1.00;;;;;;;25.36;57.51;101581.03;6131373;28;20605;-67
2023/08/13 12:13:17;;;;;;;7.25;1.48;;;;;;;25.55;57.29;101585.69;6135553;28;20237;-68
2023/08/13 12:16:38;;;;;;;2.05;0.82;;;;;;;26.69;54.56;101601.28;6132865;28;20235;-67
2023/08/13 12:20:00;;;;;;;1.27;0.80;;;;;;;28.16;50.75;101576.38;6137250;28;20227;-68
2023/08/13 12:23:21;;;;;;;1.65;1.08;;;;;;;27.34;51.62;101575.00;6117857;28;20247;-67
2023/08/13 12:26:42;;;;;;;0.98;0.80;;;;;;;29.85;47.57;101567.03;6127563;28;20615;-68
2023/08/13 12:30:04;;;;;;;7.40;0.95;;;;;;;31.37;43.86;101574.31;6129092;28;20235;-67
2023/08/13 12:33:24;;;;;;;3.38;1.23;;;;;;;33.15;41.79;101573.31;6119517;28;20228;-68
2023/08/13 12:36:49;;;;;;;1.80;1.00;;;;;;;30.54;44.37;101573.47;6112515;28;20219;-68
2023/08/13 12:40:10;;;;;;;1.20;0.85;;;;;;;28.88;46.33;101575.28;6129970;28;20231;-68
2023/08/13 12:43:31;;;;;;;0.60;0.60;;;;;;;27.34;49.24;101575.00;6129136;28;20239;-68
2023/08/13 12:46:52;;;;;;;2.05;0.90;;;;;;;28.36;48.60;101569.47;6133017;28;20235;-67
2023/08/13 12:50:13;;;;;;;2.05;0.63;;;;;;;26.52;51.17;101571.59;6134365;28;20226;-68
2023/08/13 12:53:35;;;;;;;0.80;0.80;;;;;;;25.25;53.93;101579.78;6137133;28;20227;-67
2023/08/13 12:56:56;;;;;;;3.25;1.17;;;;;;;25.15;54.93;101582.13;6131206;28;20227;-68
2023/08/13 13:00:18;;;;;;;2.55;1.15;;;;;;;25.34;55.86;101567.44;6129244;28;20236;-68
2023/08/13 13:03:38;;;;;;;2.10;0.85;;;;;;;25.66;54.99;101573.13;6129704;28;20231;-68
2023/08/13 13:06:59;;;;;;;1.92;1.42;;;;;;;26.03;53.94;101578.66;6113575;28;20228;-68
2023/08/13 13:10:22;;;;;;;1.80;1.00;;;;;;;25.94;53.38;101571.72;6120902;28;20243;-67
2023/08/13 13:13:43;;;;;;;1.73;1.15;;;;;;;27.07;52.08;101569.91;6125459;28;20235;-67
2023/08/13 13:17:04;;;;;;;1.10;0.75;;;;;;;25.63;53.19;101574.41;6121052;28;20236;-68
2023/08/13 13:20:26;;;;;;;2.55;1.10;;;;;;;27.22;50.33;101573.19;6124018;28;20235;-68
2023/08/13 13:23:46;;;;;;;2.33;1.10;;;;;;;26.42;51.10;101576.78;6126341;28;20239;-67
2023/08/13 13:27:09;;;;;;;1.45;0.60;;;;;;;26.19;52.41;101568.22;6121998;28;20243;-67
2023/08/13 13:30:32;;;;;;;1.02;0.77;;;;;;;25.38;54.54;101579.75;6118689;28;20599;-68
2023/08/13 13:33:53;;;;;;;2.10;0.95;;;;;;;25.90;53.75;101583.44;6137510;28;20545;-67
2023/08/13 13:37:14;;;;;;;1.75;0.80;;;;;;;25.71;52.79;101571.38;6126399;28;20254;-68
2023/08/13 13:40:35;;;;;;;1.20;0.70;;;;;;;25.30;54.38;101571.66;6124595;28;20227;-68
2023/08/13 13:43:57;;;;;;;1.23;0.90;;;;;;;26.29;52.92;101569.44;6122684;28;20275;-68
2023/08/13 13:47:18;;;;;;;0.98;0.88;;;;;;;25.99;53.67;101565.53;6134642;28;20349;-67
2023/08/13 13:50:39;;;;;;;0.80;0.80;;;;;;;26.19;52.49;101577.34;6107860;28;20235;-67
2023/08/13 13:54:00;;;;;;;2.08;1.27;;;;;;;25.35;55.30;101563.59;6130490;28;20227;-69
2023/08/13 13:57:23;;;;;;;0.93;0.90;;;;;;;25.74;53.91;101559.88;6129822;28;20231;-68
2023/08/13 14:00:48;;;;;;;1.33;1.00;;;;;;;25.84;53.15;101562.19;6115720;28;20300;-67
2023/08/13 14:04:09;;;;;;;1.17;1.08;;;;;;;26.11;52.91;101563.81;6127142;28;20571;-67
2023/08/13 14:07:30;;;;;;;5.82;1.10;;;;;;;25.87;53.44;101557.06;6119190;28;20226;-67
2023/08/13 14:10:51;;;;;;;0.73;0.73;;;;;;;27.12;50.77;101562.63;6123538;28;20604;-68
2023/08/13 14:14:12;;;;;;;1.70;1.45;;;;;;;26.32;52.20;101569.00;6138161;28;20323;-67
2023/08/13 14:17:35;;;;;;;1.73;0.80;;;;;;;25.59;54.10;101561.22;6116642;28;20238;-68
2023/08/13 14:20:56;;;;;;;0.73;0.70;;;;;;;25.43;54.83;101557.03;6121953;28;20247;-67
2023/08/13 14:24:16;;;;;;;2.20;1.35;;;;;;;25.20;55.98;101559.41;6129053;28;20657;-67
2023/08/13 14:27:38;;;;;;;1.05;0.80;;;;;;;25.49;55.31;101552.56;6135241;28;20243;-67
2023/08/13 14:30:59;;;;;;;1.67;1.20;;;;;;;25.22;56.33;101558.09;6112308;28;20239;-68
2023/08/13 14:34:21;;;;;;;2.05;0.98;;;;;;;25.78;55.99;101544.59;6132261;28;20314;-68
2023/08/13 14:37:42;;;;;;;3.25;1.08;;;;;;;25.18;56.10;101551.31;6120585;28;20231;-67
2023/08/13 14:41:03;;;;;;;6.32;1.25;;;;;;;24.93;56.96;101550.28;6122986;28;20242;-66
2023/08/13 14:44:24;;;;;;;2.63;1.30;;;;;;;25.73;54.88;101549.91;6136590;28;20228;-68
2023/08/13 14:47:45;;;;;;;2.35;1.25;;;;;;;26.60;53.98;101538.13;6109584;28;20235;-68
2023/08/13 14:51:08;;;;;;;0.98;0.47;;;;;;;27.32;52.20;101543.03;6117914;28;20238;-67
2023/08/13 14:54:28;;;;;;;2.90;0.95;;;;;;;27.55;51.13;101546.00;6135177;28;20235;-67
2023/08/13 14:57:49;;;;;;;2.58;0.80;;;;;;;26.27;53.26;101554.97;6129918;28;20231;-68
2023/08/13 15:01:10;;;;;;;1.73;0.90;;;;;;;25.91;53.50;101546.44;6121066;28;20223;-67
2023/08/13 15:04:31;;;;;;;1.92;0.80;;;;;;;26.31;53.78;101547.94;6133130;28;20425;-67
2023/08/13 15:07:53;;;;;;;3.50;1.40;;;;;;;26.87;51.88;101551.56;6119688;28;20228;-67
2023/08/13 15:11:14;;;;;;;1.75;1.17;;;;;;;26.01;53.71;101553.16;6126721;28;20560;-67
2023/08/13 15:14:35;;;;;;;3.58;1.42;;;;;;;25.88;54.68;101544.09;6138915;28;20231;-67
2023/08/13 15:17:56;;;;;;;2.95;1.27;;;;;;;25.97;55.29;101543.63;6117196;28;20231;-67
2023/08/13 15:21:17;;;;;;;1.60;1.08;;;;;;;25.61;55.35;101542.53;6135901;28;20894;-68
2023/08/13 15:24:39;;;;;;;1.02;0.90;;;;;;;24.73;56.29;101549.41;6135199;28;20240;-66
2023/08/13 15:28:00;;;;;;;2.30;1.65;;;;;;;24.89;56.56;101539.88;6130603;28;20259;-67
2023/08/13 15:31:21;;;;;;;0.98;0.80;;;;;;;25.17;56.43;101533.06;6129421;28;20223;-67
2023/08/13 15:34:42;;;;;;;1.70;1.17;;;;;;;26.03;54.76;101528.91;6138128;28;20269;-67